This is the latest recevied weather packets stored in our database for station/object KO4LCK. If no packets are shown the sender has not sent any weather packets the latest 1 day(s).
| Time | Temp. | Humidity | Pressure | Rain* | Wind** | Luminosity | Snow |
|---|---|---|---|---|---|---|---|
| 1777991497 | 21.67° C | 58% | 1016.7 hPa | 0 mm | 0 m/s | 528 W/m² | - |
| 1777991194 | 21.11° C | 56% | 1016.9 hPa | 0 mm | 0 m/s | 452 W/m² | - |
| 1777990892 | 21.11° C | 57% | 1016.7 hPa | 0 mm | 0 m/s | 448 W/m² | - |
| 1777990590 | 21.11° C | 56% | 1016.8 hPa | 0 mm | 0.45 m/s, 255° | 512 W/m² | - |
| 1777990286 | 20.56° C | 56% | 1017.1 hPa | 0 mm | 0 m/s | 477 W/m² | - |
| 1777989983 | 20° C | 61% | 1016.6 hPa | 0 mm | 0 m/s | 440 W/m² | - |
| 1777989680 | 20° C | 61% | 1016.8 hPa | 0 mm | 0 m/s | 418 W/m² | - |
| 1777989375 | 20° C | 61% | 1016.6 hPa | 0 mm | 0.45 m/s, 264° | 432 W/m² | - |
| 1777989072 | 20° C | 60% | 1016.7 hPa | 0 mm | 0.45 m/s, 196° | 408 W/m² | - |
| 1777988768 | 19.44° C | 59% | 1016.6 hPa | 0 mm | 0 m/s | 405 W/m² | - |
| 1777988466 | 18.33° C | 61% | 1016.9 hPa | 0 mm | 0 m/s | 375 W/m² | - |
| 1777988163 | 17.78° C | 62% | 1016.8 hPa | 0 mm | 0.45 m/s, 164° | 355 W/m² | - |
| 1777987858 | 17.78° C | 63% | 1016.7 hPa | 0 mm | 0 m/s | 299 W/m² | - |
| 1777987555 | 17.78° C | 64% | 1016.8 hPa | 0 mm | 0.45 m/s, 208° | 336 W/m² | - |
| 1777987253 | 17.22° C | 64% | 1016.6 hPa | 0 mm | 0.45 m/s, 155° | 318 W/m² | - |
| 1777986949 | 17.22° C | 67% | 1016.4 hPa | 0 mm | 0.45 m/s, 168° | 300 W/m² | - |
| 1777986647 | 16.67° C | 68% | 1016.9 hPa | 0 mm | 0.45 m/s, 273° | 285 W/m² | - |
| 1777986345 | 16.11° C | 71% | 1016.9 hPa | 0 mm | 0 m/s | 270 W/m² | - |
| 1777986043 | 15.56° C | 73% | 1016.9 hPa | 0 mm | 0 m/s | 255 W/m² | - |
| 1777985739 | 15° C | 70% | 1016.7 hPa | 0 mm | 0 m/s | 240 W/m² | - |
| 1777985436 | 15° C | 70% | 1016.7 hPa | 0 mm | 0.89 m/s, 182° | 220 W/m² | - |
| 1777985133 | 15° C | 72% | 1016.6 hPa | 0 mm | 0.45 m/s, 245° | 165 W/m² | - |
| 1777984829 | 13.89° C | 74% | 1016.4 hPa | 0 mm | 0 m/s | 187 W/m² | - |
| 1777984526 | 13.33° C | 79% | 1016.1 hPa | 0 mm | 0 m/s | 136 W/m² | - |
| 1777984222 | 12.22° C | 85% | 1016.4 hPa | 0 mm | 0 m/s | 106 W/m² | - |
* Rain latest hour (hover to see other rain measurements)
** Current wind speed in m/s (hover to see current wind gust speed)